Accueil
METAR-TAF:

METAR-TAF

Aéroports :

Paris, France

Aéroport de Paris-Le Bourget

latitude: 48-58N, longitude: 002-27E, altitude: 66 m

Observation

Le bulletin a été fait il y a 27 minutes, à 04:00 UTC
Vent calme
Température 11°C
Humidité 94%
Pression 1020 hPa
Visibilité 10 km ou plus
Quelques nuages à une hauteur de 800 ft
Nuages fragmentés à une hauteur de 5600 ft
Ciel couvert à une hauteur de 6800 ft

METAR: LFPB 220400Z AUTO 00000KT 9999 FEW008 BKN056 OVC068 11/10 Q1020 TEMPO BKN008

Heure: 06:27 (04:27 UTC)

Prévision

Le bulletin a été fait il y a 23 minutes, à 04:04 UTC
Prévision valable du 22 à 04 UTC au 22 à 24 UTC
Vent 5 kt de nord/nord-ouest
Visibilité 10 km ou plus
Nuages fragmentés à une hauteur de 4500 ft
Temporairement
du 22 à 04 UTC au 22 à 08 UTC
Nuages fragmentés à une hauteur de 1000 ft

TAF: LFPB 220404Z 2204/2224 34005KT 9999 BKN045 TEMPO 2204/2208 BKN010

Observations et prévisions météorologiques de plus de 4000 aéroports (messages METAR et TAF).

Les stations disponibles sont représentées par des disques jaunes et rouges sur la carte.

Passer la souris dessus pour voir le nom de la station.

Cliquer dessus pour voir les observations et prévisions météorologiques.

Pour changer de carte: cliquez sur les boutons verts avec une croix noire pour zoomer, sur le bouton vert avec un tiret pour effectuer un zoom arrière, ou sur les flèches vertes pour les cartes adjacentes.


METAR-TAF: